sensor_id;sensor_type;location;lat;lon;timestamp;P1;durP1;ratioP1;P2;durP2;ratioP2
20090;SDS011;10205;49.678;6.560;2022-12-17T00:02:10;19.13;;;12.60;;
20090;SDS011;10205;49.678;6.560;2022-12-17T00:04:57;16.77;;;12.70;;
20090;SDS011;10205;49.678;6.560;2022-12-17T00:07:42;17.27;;;12.67;;
20090;SDS011;10205;49.678;6.560;2022-12-17T00:10:26;20.20;;;11.30;;
20090;SDS011;10205;49.678;6.560;2022-12-17T00:13:16;21.47;;;14.33;;
20090;SDS011;10205;49.678;6.560;2022-12-17T00:16:02;17.50;;;12.20;;
20090;SDS011;10205;49.678;6.560;2022-12-17T00:18:48;17.10;;;12.87;;
20090;SDS011;10205;49.678;6.560;2022-12-17T00:21:33;19.90;;;13.57;;
20090;SDS011;10205;49.678;6.560;2022-12-17T00:24:18;20.00;;;13.43;;
20090;SDS011;10205;49.678;6.560;2022-12-17T00:27:02;21.47;;;13.83;;
20090;SDS011;10205;49.678;6.560;2022-12-17T00:29:47;24.37;;;14.53;;
20090;SDS011;10205;49.678;6.560;2022-12-17T00:32:31;23.20;;;12.53;;
20090;SDS011;10205;49.678;6.560;2022-12-17T00:35:17;19.90;;;11.87;;
20090;SDS011;10205;49.678;6.560;2022-12-17T00:38:02;19.77;;;12.33;;
20090;SDS011;10205;49.678;6.560;2022-12-17T00:40:49;22.07;;;13.00;;
20090;SDS011;10205;49.678;6.560;2022-12-17T00:43:34;28.90;;;12.80;;
20090;SDS011;10205;49.678;6.560;2022-12-17T00:46:19;23.67;;;12.97;;
20090;SDS011;10205;49.678;6.560;2022-12-17T00:49:03;20.40;;;12.63;;
20090;SDS011;10205;49.678;6.560;2022-12-17T00:51:49;19.90;;;12.43;;
20090;SDS011;10205;49.678;6.560;2022-12-17T00:54:34;20.87;;;13.50;;
20090;SDS011;10205;49.678;6.560;2022-12-17T00:57:19;20.00;;;12.67;;
20090;SDS011;10205;49.678;6.560;2022-12-17T01:00:06;21.80;;;13.10;;
20090;SDS011;10205;49.678;6.560;2022-12-17T01:02:52;24.80;;;13.40;;
20090;SDS011;10205;49.678;6.560;2022-12-17T01:05:37;24.63;;;13.57;;
20090;SDS011;10205;49.678;6.560;2022-12-17T01:08:22;26.17;;;14.30;;
20090;SDS011;10205;49.678;6.560;2022-12-17T01:11:07;29.17;;;15.70;;
20090;SDS011;10205;49.678;6.560;2022-12-17T01:13:52;22.87;;;13.73;;
20090;SDS011;10205;49.678;6.560;2022-12-17T01:16:37;23.37;;;13.33;;
20090;SDS011;10205;49.678;6.560;2022-12-17T01:19:21;23.20;;;13.73;;
20090;SDS011;10205;49.678;6.560;2022-12-17T01:22:05;24.50;;;13.77;;
20090;SDS011;10205;49.678;6.560;2022-12-17T01:24:51;22.23;;;13.20;;
20090;SDS011;10205;49.678;6.560;2022-12-17T01:27:36;20.03;;;12.30;;
20090;SDS011;10205;49.678;6.560;2022-12-17T01:30:17;19.80;;;12.50;;
20090;SDS011;10205;49.678;6.560;2022-12-17T01:33:02;20.27;;;12.60;;
20090;SDS011;10205;49.678;6.560;2022-12-17T01:35:49;21.43;;;12.67;;
20090;SDS011;10205;49.678;6.560;2022-12-17T01:38:37;19.40;;;12.27;;
20090;SDS011;10205;49.678;6.560;2022-12-17T01:41:23;19.07;;;11.53;;
20090;SDS011;10205;49.678;6.560;2022-12-17T01:47:39;17.33;;;11.60;;
20090;SDS011;10205;49.678;6.560;2022-12-17T01:50:30;16.23;;;11.37;;
20090;SDS011;10205;49.678;6.560;2022-12-17T01:53:20;19.60;;;11.13;;
20090;SDS011;10205;49.678;6.560;2022-12-17T01:56:11;19.97;;;11.77;;
20090;SDS011;10205;49.678;6.560;2022-12-17T01:58:57;18.60;;;11.40;;
20090;SDS011;10205;49.678;6.560;2022-12-17T02:01:41;19.90;;;11.07;;
20090;SDS011;10205;49.678;6.560;2022-12-17T02:04:26;17.87;;;11.37;;
20090;SDS011;10205;49.678;6.560;2022-12-17T02:07:14;19.43;;;11.93;;
20090;SDS011;10205;49.678;6.560;2022-12-17T02:10:19;17.23;;;10.63;;
20090;SDS011;10205;49.678;6.560;2022-12-17T02:13:13;17.83;;;11.10;;
20090;SDS011;10205;49.678;6.560;2022-12-17T02:16:06;16.90;;;10.97;;
20090;SDS011;10205;49.678;6.560;2022-12-17T02:18:59;16.63;;;11.20;;
20090;SDS011;10205;49.678;6.560;2022-12-17T02:21:57;16.03;;;11.13;;
20090;SDS011;10205;49.678;6.560;2022-12-17T02:24:57;16.37;;;10.57;;
20090;SDS011;10205;49.678;6.560;2022-12-17T02:27:53;16.33;;;10.67;;
20090;SDS011;10205;49.678;6.560;2022-12-17T02:30:38;17.47;;;11.20;;
20090;SDS011;10205;49.678;6.560;2022-12-17T02:33:23;16.33;;;10.73;;
20090;SDS011;10205;49.678;6.560;2022-12-17T02:36:08;20.80;;;12.10;;
20090;SDS011;10205;49.678;6.560;2022-12-17T02:38:53;20.00;;;12.27;;
20090;SDS011;10205;49.678;6.560;2022-12-17T02:41:39;17.90;;;11.90;;
20090;SDS011;10205;49.678;6.560;2022-12-17T02:44:31;19.33;;;11.97;;
20090;SDS011;10205;49.678;6.560;2022-12-17T02:47:17;16.90;;;10.30;;
20090;SDS011;10205;49.678;6.560;2022-12-17T02:50:06;18.00;;;11.03;;
20090;SDS011;10205;49.678;6.560;2022-12-17T02:52:51;15.10;;;9.93;;
20090;SDS011;10205;49.678;6.560;2022-12-17T02:55:37;17.80;;;10.50;;
20090;SDS011;10205;49.678;6.560;2022-12-17T02:58:21;18.17;;;11.27;;
20090;SDS011;10205;49.678;6.560;2022-12-17T03:01:08;17.87;;;10.97;;
20090;SDS011;10205;49.678;6.560;2022-12-17T03:03:52;17.73;;;10.67;;
20090;SDS011;10205;49.678;6.560;2022-12-17T03:06:37;17.77;;;10.97;;
20090;SDS011;10205;49.678;6.560;2022-12-17T03:09:21;14.33;;;10.00;;
20090;SDS011;10205;49.678;6.560;2022-12-17T03:12:06;16.37;;;10.70;;
20090;SDS011;10205;49.678;6.560;2022-12-17T03:14:51;16.77;;;9.47;;
20090;SDS011;10205;49.678;6.560;2022-12-17T03:17:37;16.70;;;9.50;;
20090;SDS011;10205;49.678;6.560;2022-12-17T03:20:22;13.90;;;8.83;;
20090;SDS011;10205;49.678;6.560;2022-12-17T03:23:08;14.63;;;9.50;;
20090;SDS011;10205;49.678;6.560;2022-12-17T03:25:56;16.30;;;10.87;;
20090;SDS011;10205;49.678;6.560;2022-12-17T03:28:53;14.70;;;10.13;;
20090;SDS011;10205;49.678;6.560;2022-12-17T03:31:38;14.80;;;9.83;;
20090;SDS011;10205;49.678;6.560;2022-12-17T03:34:24;14.77;;;10.27;;
20090;SDS011;10205;49.678;6.560;2022-12-17T03:37:08;13.17;;;8.57;;
20090;SDS011;10205;49.678;6.560;2022-12-17T03:39:53;16.17;;;9.07;;
20090;SDS011;10205;49.678;6.560;2022-12-17T03:42:37;14.50;;;8.40;;
20090;SDS011;10205;49.678;6.560;2022-12-17T03:45:22;14.87;;;9.70;;
20090;SDS011;10205;49.678;6.560;2022-12-17T03:48:07;14.77;;;8.90;;
20090;SDS011;10205;49.678;6.560;2022-12-17T03:50:55;14.73;;;8.93;;
20090;SDS011;10205;49.678;6.560;2022-12-17T03:53:40;17.47;;;8.77;;
20090;SDS011;10205;49.678;6.560;2022-12-17T03:56:25;14.53;;;9.33;;
20090;SDS011;10205;49.678;6.560;2022-12-17T03:59:10;12.33;;;7.80;;
20090;SDS011;10205;49.678;6.560;2022-12-17T04:01:55;12.17;;;7.83;;
20090;SDS011;10205;49.678;6.560;2022-12-17T04:04:40;14.23;;;8.83;;
20090;SDS011;10205;49.678;6.560;2022-12-17T04:07:26;13.93;;;8.87;;
20090;SDS011;10205;49.678;6.560;2022-12-17T04:10:14;12.53;;;8.27;;
20090;SDS011;10205;49.678;6.560;2022-12-17T04:12:59;14.70;;;9.40;;
20090;SDS011;10205;49.678;6.560;2022-12-17T04:15:44;14.87;;;10.10;;
20090;SDS011;10205;49.678;6.560;2022-12-17T04:18:43;14.97;;;10.03;;
20090;SDS011;10205;49.678;6.560;2022-12-17T04:21:29;16.13;;;10.50;;
20090;SDS011;10205;49.678;6.560;2022-12-17T04:24:24;14.63;;;10.13;;
20090;SDS011;10205;49.678;6.560;2022-12-17T04:27:08;18.13;;;9.60;;
20090;SDS011;10205;49.678;6.560;2022-12-17T04:29:53;12.43;;;8.20;;
20090;SDS011;10205;49.678;6.560;2022-12-17T04:32:37;13.90;;;10.03;;
20090;SDS011;10205;49.678;6.560;2022-12-17T04:35:22;15.10;;;10.10;;
20090;SDS011;10205;49.678;6.560;2022-12-17T04:38:06;15.70;;;9.87;;
20090;SDS011;10205;49.678;6.560;2022-12-17T04:40:55;16.53;;;10.10;;
20090;SDS011;10205;49.678;6.560;2022-12-17T04:43:39;15.00;;;10.27;;
20090;SDS011;10205;49.678;6.560;2022-12-17T04:46:24;16.10;;;9.97;;
20090;SDS011;10205;49.678;6.560;2022-12-17T04:49:08;19.17;;;9.70;;
20090;SDS011;10205;49.678;6.560;2022-12-17T04:51:53;15.77;;;9.70;;
20090;SDS011;10205;49.678;6.560;2022-12-17T04:54:38;17.53;;;10.17;;
20090;SDS011;10205;49.678;6.560;2022-12-17T04:57:24;16.07;;;9.30;;
20090;SDS011;10205;49.678;6.560;2022-12-17T05:00:08;14.70;;;8.73;;
20090;SDS011;10205;49.678;6.560;2022-12-17T05:02:54;14.23;;;9.10;;
20090;SDS011;10205;49.678;6.560;2022-12-17T05:05:46;16.57;;;10.60;;
20090;SDS011;10205;49.678;6.560;2022-12-17T05:08:31;15.63;;;10.60;;
20090;SDS011;10205;49.678;6.560;2022-12-17T05:11:16;16.03;;;10.37;;
20090;SDS011;10205;49.678;6.560;2022-12-17T05:14:03;16.30;;;10.53;;
20090;SDS011;10205;49.678;6.560;2022-12-17T05:16:48;15.63;;;10.67;;
20090;SDS011;10205;49.678;6.560;2022-12-17T05:19:33;15.70;;;9.97;;
20090;SDS011;10205;49.678;6.560;2022-12-17T05:22:17;17.97;;;9.93;;
20090;SDS011;10205;49.678;6.560;2022-12-17T05:25:02;14.50;;;10.13;;
20090;SDS011;10205;49.678;6.560;2022-12-17T05:27:47;14.07;;;10.10;;
20090;SDS011;10205;49.678;6.560;2022-12-17T05:30:34;15.83;;;9.30;;
20090;SDS011;10205;49.678;6.560;2022-12-17T05:33:18;15.97;;;9.20;;
20090;SDS011;10205;49.678;6.560;2022-12-17T05:36:03;16.37;;;8.20;;
20090;SDS011;10205;49.678;6.560;2022-12-17T05:38:48;15.87;;;10.00;;
20090;SDS011;10205;49.678;6.560;2022-12-17T05:41:33;14.87;;;10.20;;
20090;SDS011;10205;49.678;6.560;2022-12-17T05:44:19;14.03;;;10.07;;
20090;SDS011;10205;49.678;6.560;2022-12-17T05:47:05;15.40;;;10.30;;
20090;SDS011;10205;49.678;6.560;2022-12-17T05:49:50;14.97;;;10.03;;
20090;SDS011;10205;49.678;6.560;2022-12-17T05:52:35;14.37;;;10.07;;
20090;SDS011;10205;49.678;6.560;2022-12-17T05:55:20;15.50;;;10.47;;
20090;SDS011;10205;49.678;6.560;2022-12-17T05:58:05;15.33;;;10.00;;
20090;SDS011;10205;49.678;6.560;2022-12-17T06:00:54;15.07;;;9.57;;
20090;SDS011;10205;49.678;6.560;2022-12-17T06:03:40;15.37;;;10.53;;
20090;SDS011;10205;49.678;6.560;2022-12-17T06:06:25;16.90;;;10.17;;
20090;SDS011;10205;49.678;6.560;2022-12-17T06:09:09;13.33;;;9.73;;
20090;SDS011;10205;49.678;6.560;2022-12-17T06:12:06;15.87;;;9.97;;
20090;SDS011;10205;49.678;6.560;2022-12-17T06:14:53;17.40;;;10.70;;
20090;SDS011;10205;49.678;6.560;2022-12-17T06:17:38;16.63;;;10.67;;
20090;SDS011;10205;49.678;6.560;2022-12-17T06:20:24;15.70;;;10.53;;
20090;SDS011;10205;49.678;6.560;2022-12-17T06:23:09;16.17;;;9.53;;
20090;SDS011;10205;49.678;6.560;2022-12-17T06:25:54;14.50;;;8.77;;
20090;SDS011;10205;49.678;6.560;2022-12-17T06:28:39;14.50;;;9.17;;
20090;SDS011;10205;49.678;6.560;2022-12-17T06:31:27;14.90;;;9.00;;
20090;SDS011;10205;49.678;6.560;2022-12-17T06:34:11;13.67;;;9.13;;
20090;SDS011;10205;49.678;6.560;2022-12-17T06:36:57;15.13;;;10.03;;
20090;SDS011;10205;49.678;6.560;2022-12-17T06:39:42;14.07;;;9.57;;
20090;SDS011;10205;49.678;6.560;2022-12-17T06:42:27;13.50;;;9.67;;
20090;SDS011;10205;49.678;6.560;2022-12-17T06:45:17;14.70;;;10.40;;
20090;SDS011;10205;49.678;6.560;2022-12-17T06:48:02;16.23;;;10.10;;
20090;SDS011;10205;49.678;6.560;2022-12-17T06:50:48;14.73;;;10.03;;
20090;SDS011;10205;49.678;6.560;2022-12-17T06:53:34;15.30;;;10.50;;
20090;SDS011;10205;49.678;6.560;2022-12-17T06:56:24;14.93;;;10.50;;
20090;SDS011;10205;49.678;6.560;2022-12-17T06:59:08;15.70;;;10.27;;
20090;SDS011;10205;49.678;6.560;2022-12-17T07:01:53;17.13;;;9.23;;
20090;SDS011;10205;49.678;6.560;2022-12-17T07:04:38;15.37;;;10.97;;
20090;SDS011;10205;49.678;6.560;2022-12-17T07:07:22;15.17;;;9.60;;
20090;SDS011;10205;49.678;6.560;2022-12-17T07:10:08;14.27;;;9.03;;
20090;SDS011;10205;49.678;6.560;2022-12-17T07:12:53;15.63;;;9.87;;
20090;SDS011;10205;49.678;6.560;2022-12-17T07:15:37;14.60;;;10.40;;
20090;SDS011;10205;49.678;6.560;2022-12-17T07:18:24;15.77;;;9.93;;
20090;SDS011;10205;49.678;6.560;2022-12-17T07:21:09;14.63;;;9.33;;
20090;SDS011;10205;49.678;6.560;2022-12-17T07:23:53;12.70;;;9.67;;
20090;SDS011;10205;49.678;6.560;2022-12-17T07:26:40;13.63;;;9.93;;
20090;SDS011;10205;49.678;6.560;2022-12-17T07:29:24;13.90;;;8.10;;
20090;SDS011;10205;49.678;6.560;2022-12-17T07:32:09;15.43;;;9.40;;
20090;SDS011;10205;49.678;6.560;2022-12-17T07:34:53;14.23;;;9.00;;
20090;SDS011;10205;49.678;6.560;2022-12-17T07:37:38;14.40;;;9.90;;
20090;SDS011;10205;49.678;6.560;2022-12-17T07:40:22;14.37;;;10.07;;
20090;SDS011;10205;49.678;6.560;2022-12-17T07:43:12;13.17;;;8.47;;
20090;SDS011;10205;49.678;6.560;2022-12-17T07:45:58;15.03;;;10.30;;
20090;SDS011;10205;49.678;6.560;2022-12-17T07:48:42;15.57;;;10.70;;
20090;SDS011;10205;49.678;6.560;2022-12-17T07:51:41;17.07;;;10.93;;
20090;SDS011;10205;49.678;6.560;2022-12-17T07:54:26;15.00;;;10.47;;
20090;SDS011;10205;49.678;6.560;2022-12-17T07:57:11;14.73;;;11.03;;
20090;SDS011;10205;49.678;6.560;2022-12-17T08:00:13;18.57;;;11.43;;
20090;SDS011;10205;49.678;6.560;2022-12-17T08:02:58;16.23;;;11.00;;
20090;SDS011;10205;49.678;6.560;2022-12-17T08:05:43;16.27;;;10.67;;
20090;SDS011;10205;49.678;6.560;2022-12-17T08:08:28;16.53;;;10.50;;
20090;SDS011;10205;49.678;6.560;2022-12-17T08:11:13;14.73;;;9.90;;
20090;SDS011;10205;49.678;6.560;2022-12-17T08:13:57;14.77;;;10.83;;
20090;SDS011;10205;49.678;6.560;2022-12-17T08:16:43;16.67;;;11.27;;
20090;SDS011;10205;49.678;6.560;2022-12-17T08:19:28;18.40;;;11.60;;
20090;SDS011;10205;49.678;6.560;2022-12-17T08:22:27;16.40;;;10.93;;
20090;SDS011;10205;49.678;6.560;2022-12-17T08:25:12;16.80;;;11.03;;
20090;SDS011;10205;49.678;6.560;2022-12-17T08:27:59;15.97;;;10.73;;
20090;SDS011;10205;49.678;6.560;2022-12-17T08:30:46;17.30;;;11.43;;
20090;SDS011;10205;49.678;6.560;2022-12-17T08:33:32;17.07;;;11.50;;
20090;SDS011;10205;49.678;6.560;2022-12-17T08:36:17;17.80;;;11.53;;
20090;SDS011;10205;49.678;6.560;2022-12-17T08:39:02;19.23;;;11.30;;
20090;SDS011;10205;49.678;6.560;2022-12-17T08:41:49;15.33;;;9.73;;
20090;SDS011;10205;49.678;6.560;2022-12-17T08:44:34;15.73;;;11.13;;
20090;SDS011;10205;49.678;6.560;2022-12-17T08:47:18;15.77;;;10.43;;
20090;SDS011;10205;49.678;6.560;2022-12-17T08:50:05;17.17;;;10.47;;
20090;SDS011;10205;49.678;6.560;2022-12-17T08:52:55;14.93;;;10.50;;
20090;SDS011;10205;49.678;6.560;2022-12-17T08:55:41;19.10;;;11.97;;
20090;SDS011;10205;49.678;6.560;2022-12-17T08:58:25;14.90;;;10.57;;
20090;SDS011;10205;49.678;6.560;2022-12-17T09:01:12;18.70;;;12.17;;
20090;SDS011;10205;49.678;6.560;2022-12-17T09:03:56;17.17;;;10.97;;
20090;SDS011;10205;49.678;6.560;2022-12-17T09:06:42;15.27;;;11.17;;
20090;SDS011;10205;49.678;6.560;2022-12-17T09:09:27;18.00;;;9.97;;
20090;SDS011;10205;49.678;6.560;2022-12-17T09:12:11;18.37;;;10.27;;
20090;SDS011;10205;49.678;6.560;2022-12-17T09:14:56;15.57;;;9.57;;
20090;SDS011;10205;49.678;6.560;2022-12-17T09:17:40;17.73;;;11.90;;
20090;SDS011;10205;49.678;6.560;2022-12-17T09:20:25;18.30;;;11.67;;
20090;SDS011;10205;49.678;6.560;2022-12-17T09:23:15;18.40;;;11.47;;
20090;SDS011;10205;49.678;6.560;2022-12-17T09:26:12;16.57;;;10.43;;
20090;SDS011;10205;49.678;6.560;2022-12-17T09:28:59;17.07;;;11.70;;
20090;SDS011;10205;49.678;6.560;2022-12-17T09:31:43;16.00;;;11.13;;
20090;SDS011;10205;49.678;6.560;2022-12-17T09:34:28;14.83;;;10.80;;
20090;SDS011;10205;49.678;6.560;2022-12-17T09:37:13;16.83;;;10.87;;
20090;SDS011;10205;49.678;6.560;2022-12-17T09:39:59;15.87;;;11.80;;
20090;SDS011;10205;49.678;6.560;2022-12-17T09:42:44;16.53;;;11.40;;
20090;SDS011;10205;49.678;6.560;2022-12-17T09:45:41;19.20;;;12.47;;
20090;SDS011;10205;49.678;6.560;2022-12-17T09:48:34;18.77;;;12.43;;
20090;SDS011;10205;49.678;6.560;2022-12-17T09:51:31;19.13;;;12.57;;
20090;SDS011;10205;49.678;6.560;2022-12-17T09:54:18;16.17;;;10.93;;
20090;SDS011;10205;49.678;6.560;2022-12-17T09:57:15;18.77;;;11.43;;
20090;SDS011;10205;49.678;6.560;2022-12-17T10:00:06;20.40;;;12.17;;
20090;SDS011;10205;49.678;6.560;2022-12-17T10:02:58;15.63;;;10.77;;
20090;SDS011;10205;49.678;6.560;2022-12-17T10:05:44;17.50;;;10.77;;
20090;SDS011;10205;49.678;6.560;2022-12-17T10:08:37;17.03;;;10.23;;
20090;SDS011;10205;49.678;6.560;2022-12-17T10:11:22;12.67;;;9.73;;
20090;SDS011;10205;49.678;6.560;2022-12-17T10:14:14;14.83;;;10.97;;
20090;SDS011;10205;49.678;6.560;2022-12-17T10:17:01;15.50;;;11.43;;
20090;SDS011;10205;49.678;6.560;2022-12-17T10:19:48;18.90;;;10.37;;
20090;SDS011;10205;49.678;6.560;2022-12-17T10:22:43;16.43;;;11.80;;
20090;SDS011;10205;49.678;6.560;2022-12-17T10:25:30;16.73;;;11.63;;
20090;SDS011;10205;49.678;6.560;2022-12-17T10:28:15;17.80;;;9.80;;
20090;SDS011;10205;49.678;6.560;2022-12-17T10:31:07;16.27;;;9.43;;
20090;SDS011;10205;49.678;6.560;2022-12-17T10:33:58;14.97;;;11.10;;
20090;SDS011;10205;49.678;6.560;2022-12-17T10:36:43;17.93;;;11.73;;
20090;SDS011;10205;49.678;6.560;2022-12-17T10:39:31;16.97;;;11.43;;
20090;SDS011;10205;49.678;6.560;2022-12-17T10:42:20;18.90;;;11.70;;
20090;SDS011;10205;49.678;6.560;2022-12-17T10:45:20;17.97;;;12.40;;
20090;SDS011;10205;49.678;6.560;2022-12-17T10:51:17;16.90;;;12.43;;
20090;SDS011;10205;49.678;6.560;2022-12-17T10:54:08;17.70;;;11.90;;
20090;SDS011;10205;49.678;6.560;2022-12-17T10:57:04;17.93;;;12.63;;
20090;SDS011;10205;49.678;6.560;2022-12-17T10:59:50;17.90;;;12.23;;
20090;SDS011;10205;49.678;6.560;2022-12-17T11:02:35;16.80;;;10.67;;
20090;SDS011;10205;49.678;6.560;2022-12-17T11:05:23;18.63;;;10.73;;
20090;SDS011;10205;49.678;6.560;2022-12-17T11:08:11;18.57;;;11.03;;
20090;SDS011;10205;49.678;6.560;2022-12-17T11:10:58;17.77;;;10.57;;
20090;SDS011;10205;49.678;6.560;2022-12-17T11:13:49;19.23;;;12.20;;
20090;SDS011;10205;49.678;6.560;2022-12-17T11:16:37;21.67;;;14.13;;
20090;SDS011;10205;49.678;6.560;2022-12-17T11:19:30;23.30;;;14.93;;
20090;SDS011;10205;49.678;6.560;2022-12-17T11:22:26;22.47;;;15.23;;
20090;SDS011;10205;49.678;6.560;2022-12-17T11:25:27;24.93;;;11.70;;
20090;SDS011;10205;49.678;6.560;2022-12-17T11:28:25;19.43;;;12.17;;
20090;SDS011;10205;49.678;6.560;2022-12-17T11:31:24;16.53;;;10.57;;
20090;SDS011;10205;49.678;6.560;2022-12-17T11:34:42;22.23;;;12.53;;
20090;SDS011;10205;49.678;6.560;2022-12-17T11:37:49;22.30;;;11.83;;
20090;SDS011;10205;49.678;6.560;2022-12-17T11:40:46;20.83;;;13.30;;
20090;SDS011;10205;49.678;6.560;2022-12-17T11:43:41;18.23;;;11.03;;
20090;SDS011;10205;49.678;6.560;2022-12-17T11:46:35;21.17;;;12.93;;
20090;SDS011;10205;49.678;6.560;2022-12-17T11:49:34;19.70;;;11.67;;
20090;SDS011;10205;49.678;6.560;2022-12-17T11:52:29;20.07;;;10.93;;
20090;SDS011;10205;49.678;6.560;2022-12-17T11:55:29;21.00;;;11.47;;
20090;SDS011;10205;49.678;6.560;2022-12-17T11:58:22;18.13;;;13.27;;
20090;SDS011;10205;49.678;6.560;2022-12-17T12:01:22;21.67;;;14.20;;
20090;SDS011;10205;49.678;6.560;2022-12-17T12:04:26;22.23;;;13.73;;
20090;SDS011;10205;49.678;6.560;2022-12-17T12:07:30;18.90;;;13.90;;
20090;SDS011;10205;49.678;6.560;2022-12-17T12:10:24;22.27;;;14.17;;
20090;SDS011;10205;49.678;6.560;2022-12-17T12:13:20;22.07;;;12.17;;
20090;SDS011;10205;49.678;6.560;2022-12-17T12:16:15;17.03;;;11.37;;
20090;SDS011;10205;49.678;6.560;2022-12-17T12:19:13;26.17;;;13.30;;
20090;SDS011;10205;49.678;6.560;2022-12-17T12:22:10;19.27;;;11.50;;
20090;SDS011;10205;49.678;6.560;2022-12-17T12:25:08;19.27;;;11.73;;
20090;SDS011;10205;49.678;6.560;2022-12-17T12:28:13;23.90;;;14.20;;
20090;SDS011;10205;49.678;6.560;2022-12-17T12:31:15;22.23;;;13.87;;
20090;SDS011;10205;49.678;6.560;2022-12-17T12:34:16;20.97;;;13.33;;
20090;SDS011;10205;49.678;6.560;2022-12-17T12:37:10;27.23;;;15.07;;
20090;SDS011;10205;49.678;6.560;2022-12-17T12:40:00;25.17;;;14.07;;
20090;SDS011;10205;49.678;6.560;2022-12-17T12:42:56;23.70;;;13.10;;
20090;SDS011;10205;49.678;6.560;2022-12-17T12:45:51;20.97;;;12.87;;
20090;SDS011;10205;49.678;6.560;2022-12-17T12:48:47;21.20;;;12.17;;
20090;SDS011;10205;49.678;6.560;2022-12-17T12:51:40;20.47;;;12.60;;
20090;SDS011;10205;49.678;6.560;2022-12-17T12:54:26;17.83;;;11.90;;
20090;SDS011;10205;49.678;6.560;2022-12-17T13:00:26;21.37;;;13.63;;
20090;SDS011;10205;49.678;6.560;2022-12-17T13:03:19;21.37;;;12.63;;
20090;SDS011;10205;49.678;6.560;2022-12-17T13:06:12;20.33;;;13.40;;
20090;SDS011;10205;49.678;6.560;2022-12-17T13:09:16;21.40;;;12.33;;
20090;SDS011;10205;49.678;6.560;2022-12-17T13:12:19;25.93;;;13.67;;
20090;SDS011;10205;49.678;6.560;2022-12-17T13:14:57;18.07;;;11.77;;
20090;SDS011;10205;49.678;6.560;2022-12-17T13:17:43;22.60;;;12.57;;
20090;SDS011;10205;49.678;6.560;2022-12-17T13:20:25;23.13;;;13.40;;
20090;SDS011;10205;49.678;6.560;2022-12-17T13:23:16;24.67;;;14.27;;
20090;SDS011;10205;49.678;6.560;2022-12-17T13:28:57;24.70;;;13.20;;
20090;SDS011;10205;49.678;6.560;2022-12-17T13:31:43;21.60;;;13.13;;
20090;SDS011;10205;49.678;6.560;2022-12-17T13:34:28;23.17;;;13.00;;
20090;SDS011;10205;49.678;6.560;2022-12-17T13:37:13;23.27;;;13.67;;
20090;SDS011;10205;49.678;6.560;2022-12-17T13:39:54;24.43;;;14.23;;
20090;SDS011;10205;49.678;6.560;2022-12-17T13:42:39;24.17;;;14.20;;
20090;SDS011;10205;49.678;6.560;2022-12-17T13:45:11;26.23;;;14.73;;
20090;SDS011;10205;49.678;6.560;2022-12-17T13:47:43;20.77;;;13.23;;
20090;SDS011;10205;49.678;6.560;2022-12-17T13:50:22;21.60;;;13.77;;
20090;SDS011;10205;49.678;6.560;2022-12-17T13:52:52;23.73;;;14.77;;
20090;SDS011;10205;49.678;6.560;2022-12-17T13:55:21;23.30;;;13.70;;
20090;SDS011;10205;49.678;6.560;2022-12-17T13:57:52;27.57;;;15.40;;
20090;SDS011;10205;49.678;6.560;2022-12-17T14:00:21;23.47;;;13.90;;
20090;SDS011;10205;49.678;6.560;2022-12-17T14:02:50;21.70;;;13.70;;
20090;SDS011;10205;49.678;6.560;2022-12-17T14:05:22;21.57;;;14.17;;
20090;SDS011;10205;49.678;6.560;2022-12-17T14:07:52;22.57;;;14.23;;
20090;SDS011;10205;49.678;6.560;2022-12-17T14:10:23;25.47;;;14.33;;
20090;SDS011;10205;49.678;6.560;2022-12-17T14:12:52;23.83;;;14.10;;
20090;SDS011;10205;49.678;6.560;2022-12-17T14:15:30;24.50;;;14.17;;
20090;SDS011;10205;49.678;6.560;2022-12-17T14:17:57;24.50;;;13.97;;
20090;SDS011;10205;49.678;6.560;2022-12-17T14:20:27;23.53;;;13.93;;
20090;SDS011;10205;49.678;6.560;2022-12-17T14:22:58;23.97;;;14.87;;
20090;SDS011;10205;49.678;6.560;2022-12-17T14:25:31;23.30;;;13.77;;
20090;SDS011;10205;49.678;6.560;2022-12-17T14:28:04;23.27;;;14.00;;
20090;SDS011;10205;49.678;6.560;2022-12-17T14:30:47;28.13;;;15.43;;
20090;SDS011;10205;49.678;6.560;2022-12-17T14:33:24;22.37;;;13.43;;
20090;SDS011;10205;49.678;6.560;2022-12-17T14:35:54;20.57;;;13.10;;
20090;SDS011;10205;49.678;6.560;2022-12-17T14:38:24;21.10;;;12.47;;
20090;SDS011;10205;49.678;6.560;2022-12-17T14:40:53;24.53;;;13.53;;
20090;SDS011;10205;49.678;6.560;2022-12-17T14:43:53;20.63;;;13.83;;
20090;SDS011;10205;49.678;6.560;2022-12-17T14:46:22;23.83;;;13.27;;
20090;SDS011;10205;49.678;6.560;2022-12-17T14:48:52;22.00;;;13.60;;
20090;SDS011;10205;49.678;6.560;2022-12-17T14:51:27;25.67;;;14.80;;
20090;SDS011;10205;49.678;6.560;2022-12-17T14:54:05;24.37;;;14.97;;
20090;SDS011;10205;49.678;6.560;2022-12-17T14:56:43;22.97;;;13.93;;
20090;SDS011;10205;49.678;6.560;2022-12-17T15:02:02;19.33;;;13.13;;
20090;SDS011;10205;49.678;6.560;2022-12-17T15:04:40;20.13;;;12.30;;
20090;SDS011;10205;49.678;6.560;2022-12-17T15:07:09;23.63;;;13.57;;
20090;SDS011;10205;49.678;6.560;2022-12-17T15:09:42;19.83;;;13.20;;
20090;SDS011;10205;49.678;6.560;2022-12-17T15:12:09;22.43;;;13.33;;
20090;SDS011;10205;49.678;6.560;2022-12-17T15:14:38;24.53;;;14.13;;
20090;SDS011;10205;49.678;6.560;2022-12-17T15:17:05;21.63;;;13.97;;
20090;SDS011;10205;49.678;6.560;2022-12-17T15:19:32;22.87;;;15.03;;
20090;SDS011;10205;49.678;6.560;2022-12-17T15:21:59;22.27;;;13.73;;
20090;SDS011;10205;49.678;6.560;2022-12-17T15:24:26;23.77;;;14.20;;
20090;SDS011;10205;49.678;6.560;2022-12-17T15:26:53;23.23;;;13.67;;
20090;SDS011;10205;49.678;6.560;2022-12-17T15:29:20;20.87;;;12.87;;
20090;SDS011;10205;49.678;6.560;2022-12-17T15:31:49;19.70;;;13.07;;
20090;SDS011;10205;49.678;6.560;2022-12-17T15:34:16;22.70;;;13.93;;
20090;SDS011;10205;49.678;6.560;2022-12-17T15:36:45;22.50;;;13.30;;
20090;SDS011;10205;49.678;6.560;2022-12-17T15:39:15;19.97;;;13.03;;
20090;SDS011;10205;49.678;6.560;2022-12-17T15:41:42;19.20;;;12.73;;
20090;SDS011;10205;49.678;6.560;2022-12-17T15:44:26;21.80;;;13.30;;
20090;SDS011;10205;49.678;6.560;2022-12-17T15:46:55;22.47;;;13.43;;
20090;SDS011;10205;49.678;6.560;2022-12-17T15:49:22;20.07;;;12.93;;
20090;SDS011;10205;49.678;6.560;2022-12-17T15:51:49;22.57;;;14.23;;
20090;SDS011;10205;49.678;6.560;2022-12-17T15:54:16;21.33;;;13.37;;
20090;SDS011;10205;49.678;6.560;2022-12-17T15:56:43;21.20;;;13.43;;
20090;SDS011;10205;49.678;6.560;2022-12-17T15:59:18;18.83;;;12.20;;
20090;SDS011;10205;49.678;6.560;2022-12-17T16:01:45;19.73;;;13.03;;
20090;SDS011;10205;49.678;6.560;2022-12-17T16:04:14;21.37;;;12.70;;
20090;SDS011;10205;49.678;6.560;2022-12-17T16:06:41;19.90;;;12.60;;
20090;SDS011;10205;49.678;6.560;2022-12-17T16:09:08;19.43;;;12.07;;
20090;SDS011;10205;49.678;6.560;2022-12-17T16:11:35;27.17;;;14.20;;
20090;SDS011;10205;49.678;6.560;2022-12-17T16:14:02;21.97;;;12.90;;
20090;SDS011;10205;49.678;6.560;2022-12-17T16:16:29;26.47;;;14.60;;
20090;SDS011;10205;49.678;6.560;2022-12-17T16:18:56;22.30;;;14.00;;
20090;SDS011;10205;49.678;6.560;2022-12-17T16:21:27;21.67;;;13.80;;
20090;SDS011;10205;49.678;6.560;2022-12-17T16:23:54;24.30;;;13.53;;